Time;durP1;ratioP1;P1;durP2;ratioP2;P2;SDS_P1;SDS_P2;PMS_P1;PMS_P2;Temp;Humidity;BMP_temperature;BMP_pressure;BME280_temperature;BME280_humidity;BME280_pressure;Samples;Min_cycle;Max_cycle;Signal;HPM_P1;HPM_P2
2021/06/12 00:02:05;;;;;;;3.85;3.03;;;22.40;92.80;;;;;;5011941;28;20474;-49
2021/06/12 00:04:32;;;;;;;6.25;3.60;;;22.30;93.00;;;;;;5011724;28;20038;-47
2021/06/12 00:06:58;;;;;;;9.10;4.32;;;22.30;93.30;;;;;;5012030;28;20021;-48
2021/06/12 00:09:25;;;;;;;8.32;3.65;;;22.20;93.60;;;;;;5011929;28;20424;-47
2021/06/12 00:11:51;;;;;;;4.10;3.78;;;22.20;93.90;;;;;;5012457;28;20033;-45
2021/06/12 00:14:17;;;;;;;5.97;3.42;;;22.10;93.70;;;;;;5011915;28;20032;-48
2021/06/12 00:16:42;;;;;;;5.72;3.67;;;22.10;93.50;;;;;;5012058;28;20040;-46
2021/06/12 00:19:08;;;;;;;3.80;3.53;;;22.00;93.50;;;;;;5011745;28;20018;-51
2021/06/12 00:21:36;;;;;;;7.03;4.13;;;21.90;93.40;;;;;;5011883;28;20025;-48
2021/06/12 00:24:06;;;;;;;4.45;3.88;;;21.80;94.00;;;;;;5011866;28;20558;-46
2021/06/12 00:26:32;;;;;;;4.75;3.30;;;21.80;94.60;;;;;;5011679;28;20030;-44
2021/06/12 00:28:57;;;;;;;5.65;3.72;;;21.80;94.50;;;;;;5011447;28;20031;-47
2021/06/12 00:31:23;;;;;;;4.25;3.95;;;21.70;94.30;;;;;;5011602;28;20546;-44
2021/06/12 00:33:48;;;;;;;7.05;3.80;;;21.70;94.30;;;;;;5011428;28;20022;-44
2021/06/12 00:36:14;;;;;;;5.18;4.68;;;21.70;94.20;;;;;;5011508;28;20053;-48
2021/06/12 00:38:39;;;;;;;7.50;4.07;;;21.70;94.30;;;;;;5011316;28;20018;-51
2021/06/12 00:41:09;;;;;;;4.28;3.92;;;21.60;94.50;;;;;;5011570;28;20026;-45
2021/06/12 00:43:34;;;;;;;6.43;4.72;;;21.60;94.70;;;;;;5009384;28;20026;-47
2021/06/12 00:46:01;;;;;;;4.50;4.20;;;21.50;94.90;;;;;;5011829;28;20033;-48
2021/06/12 00:48:27;;;;;;;6.07;3.95;;;21.40;95.40;;;;;;5010996;28;20049;-48
2021/06/12 00:50:55;;;;;;;7.25;4.30;;;21.40;95.50;;;;;;5011820;28;20088;-45
2021/06/12 00:53:36;;;;;;;4.82;4.43;;;21.30;95.80;;;;;;5011317;28;20028;-47
2021/06/12 00:56:03;;;;;;;6.95;5.00;;;21.30;95.60;;;;;;5011169;28;20080;-47
2021/06/12 00:58:30;;;;;;;5.30;4.80;;;21.30;95.40;;;;;;5011103;28;20473;-46
2021/06/12 01:00:55;;;;;;;6.40;4.18;;;21.30;95.50;;;;;;5010939;28;20032;-45
2021/06/12 01:03:21;;;;;;;6.18;5.05;;;21.30;96.00;;;;;;5011702;28;20105;-49
2021/06/12 01:05:46;;;;;;;5.22;4.63;;;21.30;95.70;;;;;;5011189;28;20029;-47
2021/06/12 01:08:12;;;;;;;4.93;4.28;;;21.30;95.90;;;;;;5010912;28;20036;-47
2021/06/12 01:10:37;;;;;;;7.55;4.40;;;21.20;96.40;;;;;;5010848;28;20444;-48
2021/06/12 01:13:16;;;;;;;5.78;4.18;;;21.20;96.70;;;;;;5011585;28;20481;-49
2021/06/12 01:15:52;;;;;;;7.95;4.15;;;21.20;96.50;;;;;;5011231;28;20049;-48
2021/06/12 01:18:19;;;;;;;10.68;4.38;;;21.20;96.90;;;;;;5011729;28;20067;-48
2021/06/12 01:21:00;;;;;;;7.45;4.90;;;21.10;97.00;;;;;;5011236;28;20047;-46
2021/06/12 01:24:00;;;;;;;8.63;5.55;;;21.10;97.20;;;;;;5011256;28;20079;-48
2021/06/12 01:27:11;;;;;;;5.38;4.70;;;21.10;96.90;;;;;;5011361;28;20030;-45
2021/06/12 01:30:04;;;;;;;15.40;5.18;;;21.00;97.40;;;;;;5006958;28;20264;-45
2021/06/12 01:32:33;;;;;;;4.80;4.40;;;20.90;97.90;;;;;;5010873;28;20038;-44
2021/06/12 01:35:03;;;;;;;4.93;4.45;;;20.90;98.00;;;;;;5008942;28;20029;-45
2021/06/12 01:37:33;;;;;;;5.35;4.68;;;20.90;98.70;;;;;;5010654;28;20489;-46
2021/06/12 01:40:00;;;;;;;5.18;4.55;;;20.80;98.60;;;;;;5011079;28;20030;-50
2021/06/12 01:42:27;;;;;;;11.73;5.93;;;20.80;98.60;;;;;;5011273;28;20096;-46
2021/06/12 01:44:53;;;;;;;7.45;5.40;;;20.80;98.20;;;;;;5009847;28;20443;-51
2021/06/12 01:47:20;;;;;;;5.95;5.35;;;20.70;98.40;;;;;;5011212;28;20037;-44
2021/06/12 01:49:48;;;;;;;7.53;6.68;;;20.50;98.80;;;;;;5010700;28;20053;-51
2021/06/12 01:52:15;;;;;;;13.32;6.75;;;20.50;99.20;;;;;;5011195;28;20389;-44
2021/06/12 01:54:42;;;;;;;8.75;7.68;;;20.50;99.40;;;;;;5012253;28;20508;-44
2021/06/12 01:57:09;;;;;;;13.55;7.10;;;20.50;99.60;;;;;;5014728;28;20026;-44
2021/06/12 01:59:35;;;;;;;6.90;6.07;;;20.50;99.40;;;;;;5014668;28;20026;-44
2021/06/12 02:02:03;;;;;;;9.00;7.13;;;20.40;99.50;;;;;;5015172;28;20057;-45
2021/06/12 02:04:29;;;;;;;7.80;6.97;;;20.50;99.70;;;;;;5015074;28;20034;-44
2021/06/12 02:07:01;;;;;;;7.20;6.32;;;20.50;99.70;;;;;;5014569;28;20029;-47
2021/06/12 02:09:28;;;;;;;10.32;6.90;;;20.60;99.60;;;;;;5014363;28;20080;-44
2021/06/12 02:11:54;;;;;;;8.88;6.10;;;20.60;99.50;;;;;;5014599;28;20041;-50
2021/06/12 02:14:20;;;;;;;11.82;6.93;;;20.50;99.60;;;;;;5014832;28;20049;-50
2021/06/12 02:16:46;;;;;;;8.10;7.28;;;20.50;99.50;;;;;;5014934;28;20063;-45
2021/06/12 02:19:13;;;;;;;8.93;7.60;;;20.50;99.40;;;;;;5014184;28;20029;-52
2021/06/12 02:21:40;;;;;;;8.63;6.47;;;20.60;99.50;;;;;;5014410;28;20026;-50
2021/06/12 02:24:06;;;;;;;10.95;7.13;;;20.60;99.50;;;;;;5014491;28;20493;-47
2021/06/12 02:26:38;;;;;;;8.55;7.30;;;20.50;99.50;;;;;;5014238;28;20037;-53
2021/06/12 02:29:05;;;;;;;7.10;6.40;;;20.50;99.40;;;;;;5014241;28;20495;-46
2021/06/12 02:31:35;;;;;;;11.63;6.55;;;20.50;99.50;;;;;;5013246;28;20040;-47
2021/06/12 02:34:01;;;;;;;8.15;5.70;;;20.50;99.60;;;;;;5014007;28;20022;-45
2021/06/12 02:36:26;;;;;;;6.30;5.05;;;20.50;99.90;;;;;;5013834;28;20049;-51
2021/06/12 02:38:52;;;;;;;6.97;5.38;;;20.50;99.90;;;;;;5013526;28;20497;-48
2021/06/12 02:41:20;;;;;;;6.13;5.63;;;20.50;99.90;;;;;;5014111;28;20030;-46
2021/06/12 02:43:46;;;;;;;7.72;6.22;;;20.40;99.90;;;;;;5013598;28;20040;-45
2021/06/12 02:46:20;;;;;;;7.30;5.40;;;20.40;99.90;;;;;;5013747;28;20412;-48
2021/06/12 02:48:51;;;;;;;6.93;6.25;;;20.30;99.90;;;;;;5013861;28;20044;-45
2021/06/12 02:51:18;;;;;;;6.63;5.88;;;20.30;99.90;;;;;;5013608;28;20022;-51
2021/06/12 02:53:44;;;;;;;10.82;6.15;;;20.30;99.90;;;;;;5013437;28;20029;-45
2021/06/12 02:56:14;;;;;;;6.20;5.60;;;20.20;99.90;;;;;;5013638;28;20022;-47
2021/06/12 02:58:40;;;;;;;12.60;6.47;;;20.20;99.90;;;;;;5013168;28;20045;-47
2021/06/12 03:01:07;;;;;;;7.13;6.43;;;20.20;99.90;;;;;;5012935;28;20033;-48
2021/06/12 03:03:33;;;;;;;12.95;8.65;;;20.20;99.90;;;;;;5013195;28;20444;-46
2021/06/12 03:06:00;;;;;;;10.27;9.02;;;20.10;99.90;;;;;;5012563;28;20029;-50
2021/06/12 03:08:38;;;;;;;9.02;8.13;;;19.90;99.90;;;;;;5013253;28;20053;-45
2021/06/12 03:11:08;;;;;;;12.63;8.95;;;19.90;99.90;;;;;;5013327;28;20188;-45
2021/06/12 03:13:36;;;;;;;8.70;7.90;;;19.80;99.90;;;;;;5013213;28;20100;-50
2021/06/12 03:16:02;;;;;;;8.80;6.93;;;19.80;99.90;;;;;;5012963;28;20041;-44
2021/06/12 03:18:28;;;;;;;7.80;6.80;;;19.70;99.90;;;;;;5012839;28;20374;-49
2021/06/12 03:20:56;;;;;;;10.48;7.70;;;19.80;99.90;;;;;;5012989;28;20091;-48
2021/06/12 03:23:23;;;;;;;9.63;7.43;;;19.70;99.90;;;;;;5013158;28;20026;-52
2021/06/12 03:25:50;;;;;;;16.70;7.75;;;19.80;99.90;;;;;;5012849;28;20100;-45
2021/06/12 03:28:16;;;;;;;8.77;7.95;;;19.70;99.90;;;;;;5012687;28;20026;-48
2021/06/12 03:30:42;;;;;;;6.25;5.65;;;19.70;99.90;;;;;;5013051;28;20029;-49
2021/06/12 03:33:09;;;;;;;8.40;6.03;;;19.70;99.90;;;;;;5012385;28;20034;-53
2021/06/12 03:35:36;;;;;;;7.80;7.07;;;19.70;99.90;;;;;;5012311;28;20022;-44
2021/06/12 03:38:02;;;;;;;13.38;7.70;;;19.70;99.90;;;;;;5012587;28;20229;-43
2021/06/12 03:40:28;;;;;;;9.05;6.40;;;19.70;99.90;;;;;;5010611;28;20030;-46
2021/06/12 03:42:55;;;;;;;6.88;6.18;;;19.70;99.90;;;;;;5012124;28;20026;-47
2021/06/12 03:45:22;;;;;;;8.95;6.55;;;19.70;99.90;;;;;;5012004;28;20045;-45
2021/06/12 03:47:51;;;;;;;9.13;6.53;;;19.70;99.90;;;;;;5011961;28;20042;-52
2021/06/12 03:50:17;;;;;;;7.30;6.60;;;19.80;99.90;;;;;;5011789;28;20067;-48
2021/06/12 03:52:43;;;;;;;7.40;6.53;;;19.80;99.90;;;;;;5012381;28;20038;-45
2021/06/12 03:55:11;;;;;;;6.43;5.93;;;19.90;99.90;;;;;;5011862;28;20097;-45
2021/06/12 03:57:37;;;;;;;6.88;6.22;;;20.00;99.90;;;;;;5011902;28;20026;-44
2021/06/12 04:00:06;;;;;;;7.97;6.63;;;20.00;99.90;;;;;;5011227;28;20037;-44
2021/06/12 04:02:32;;;;;;;7.25;6.43;;;20.00;99.90;;;;;;5011952;28;20032;-49
2021/06/12 04:04:57;;;;;;;6.55;5.93;;;20.10;99.90;;;;;;5011686;28;20022;-48
2021/06/12 04:07:25;;;;;;;7.88;7.05;;;20.10;99.90;;;;;;5008091;28;20025;-47
2021/06/12 04:09:50;;;;;;;10.82;6.18;;;20.20;99.90;;;;;;5011310;28;20033;-48
2021/06/12 04:12:16;;;;;;;6.70;6.00;;;20.20;99.90;;;;;;5011635;28;20057;-50
2021/06/12 04:14:41;;;;;;;8.23;6.47;;;20.30;99.90;;;;;;5011422;28;20037;-48
2021/06/12 04:17:07;;;;;;;7.47;5.60;;;20.30;99.90;;;;;;5011589;28;20477;-45
2021/06/12 04:19:32;;;;;;;8.48;6.07;;;20.40;99.90;;;;;;5010860;28;20111;-45
2021/06/12 04:21:58;;;;;;;8.27;6.10;;;20.40;99.90;;;;;;5012335;28;20021;-51
2021/06/12 04:24:24;;;;;;;7.18;5.30;;;20.40;99.90;;;;;;5012420;28;20496;-46
2021/06/12 04:26:49;;;;;;;6.13;5.57;;;20.50;99.90;;;;;;5012032;28;20026;-46
2021/06/12 04:29:15;;;;;;;11.82;5.75;;;20.50;99.90;;;;;;5010521;28;20026;-48
2021/06/12 04:31:40;;;;;;;7.10;5.15;;;20.50;99.90;;;;;;5011790;28;20156;-49
2021/06/12 04:34:06;;;;;;;8.68;5.45;;;20.50;99.90;;;;;;5011309;28;20022;-47
2021/06/12 04:36:32;;;;;;;9.18;6.07;;;20.50;99.90;;;;;;5011236;28;20026;-44
2021/06/12 04:38:57;;;;;;;6.65;5.82;;;20.50;99.90;;;;;;5011010;28;20076;-44
2021/06/12 04:41:23;;;;;;;7.43;5.95;;;20.60;99.90;;;;;;5011247;28;20064;-49
2021/06/12 04:43:49;;;;;;;7.60;5.35;;;20.50;99.90;;;;;;5010933;28;20503;-44
2021/06/12 04:46:14;;;;;;;7.05;4.65;;;20.40;99.90;;;;;;5009838;28;20033;-45
2021/06/12 04:48:40;;;;;;;5.78;5.18;;;20.40;99.90;;;;;;5010809;28;20034;-44
2021/06/12 04:51:06;;;;;;;5.68;4.72;;;20.50;99.90;;;;;;5011190;28;20029;-45
2021/06/12 04:53:32;;;;;;;8.27;4.70;;;20.50;99.90;;;;;;5011203;28;20037;-46
2021/06/12 04:55:59;;;;;;;6.15;4.38;;;20.50;99.90;;;;;;5011024;28;20022;-44
2021/06/12 04:58:24;;;;;;;4.38;3.95;;;20.50;99.90;;;;;;5010654;28;20034;-51
2021/06/12 05:00:51;;;;;;;4.40;4.05;;;20.50;99.90;;;;;;5010980;28;20559;-45
2021/06/12 05:03:19;;;;;;;8.02;5.32;;;20.60;99.90;;;;;;5011033;28;20038;-50
2021/06/12 05:05:44;;;;;;;4.65;4.25;;;20.60;99.90;;;;;;5011007;28;20021;-51
2021/06/12 05:08:10;;;;;;;5.38;4.88;;;20.70;99.90;;;;;;5009605;28;20053;-45
2021/06/12 05:10:35;;;;;;;6.57;4.35;;;20.70;99.90;;;;;;5010560;28;20370;-46
2021/06/12 05:13:01;;;;;;;5.38;4.88;;;20.80;99.90;;;;;;5010064;28;20033;-49
2021/06/12 05:15:29;;;;;;;5.05;4.55;;;20.80;99.90;;;;;;5010588;28;20089;-47
2021/06/12 05:17:56;;;;;;;7.53;4.40;;;21.00;99.90;;;;;;5010913;28;20540;-46
2021/06/12 05:20:24;;;;;;;7.57;4.28;;;20.90;99.90;;;;;;5009250;28;20029;-44
2021/06/12 05:22:49;;;;;;;4.45;4.05;;;20.90;99.90;;;;;;5009478;28;20113;-49
2021/06/12 05:25:16;;;;;;;5.20;4.32;;;20.90;99.90;;;;;;5010695;28;20563;-50
2021/06/12 05:27:41;;;;;;;5.03;3.70;;;20.90;99.90;;;;;;5010674;28;20026;-48
2021/06/12 05:30:07;;;;;;;4.43;4.13;;;20.90;99.90;;;;;;5012656;28;20397;-44
2021/06/12 05:32:33;;;;;;;6.55;3.67;;;20.90;99.90;;;;;;5013871;28;20408;-43
2021/06/12 05:35:00;;;;;;;3.88;3.55;;;20.90;99.90;;;;;;5014491;28;20022;-44
2021/06/12 05:37:25;;;;;;;8.63;3.75;;;21.00;99.90;;;;;;5014557;28;20053;-47
2021/06/12 05:39:51;;;;;;;6.03;3.80;;;21.00;99.90;;;;;;5014373;28;20036;-46
2021/06/12 05:42:16;;;;;;;4.20;3.13;;;21.10;99.90;;;;;;5014541;28;20026;-47
2021/06/12 05:44:42;;;;;;;8.73;4.97;;;21.20;99.90;;;;;;5014376;28;20124;-46
2021/06/12 05:47:07;;;;;;;8.43;3.67;;;21.20;99.90;;;;;;5014402;28;20022;-48
2021/06/12 05:49:33;;;;;;;4.13;3.80;;;21.40;99.90;;;;;;5014189;28;20037;-47
2021/06/12 05:51:59;;;;;;;5.72;3.97;;;21.40;99.90;;;;;;5013085;28;20028;-43
2021/06/12 05:54:24;;;;;;;4.78;3.33;;;21.50;99.90;;;;;;5014223;28;20501;-44
2021/06/12 05:56:50;;;;;;;3.83;3.30;;;21.50;99.90;;;;;;5014266;28;20038;-54
2021/06/12 05:59:15;;;;;;;4.53;3.53;;;21.60;99.90;;;;;;5014172;28;20101;-45
2021/06/12 06:01:41;;;;;;;7.25;3.80;;;21.60;99.90;;;;;;5014264;28;20018;-47
2021/06/12 06:04:06;;;;;;;3.80;3.45;;;21.60;99.90;;;;;;5014338;28;20018;-48
2021/06/12 06:06:32;;;;;;;4.32;2.97;;;21.60;99.90;;;;;;5014152;28;20022;-49
2021/06/12 06:08:57;;;;;;;5.75;4.03;;;21.70;99.90;;;;;;5013415;28;20029;-44
2021/06/12 06:11:23;;;;;;;6.22;3.88;;;21.70;99.90;;;;;;5010371;28;20407;-45
2021/06/12 06:13:49;;;;;;;4.22;3.40;;;21.60;99.90;;;;;;5012883;28;20045;-46
2021/06/12 06:16:14;;;;;;;3.67;3.38;;;21.70;99.90;;;;;;5013311;28;20030;-46
2021/06/12 06:18:40;;;;;;;4.07;3.70;;;21.80;99.90;;;;;;5013259;28;20124;-45
2021/06/12 06:21:07;;;;;;;7.47;3.67;;;21.80;99.90;;;;;;5013763;28;20026;-44
2021/06/12 06:23:33;;;;;;;6.85;3.35;;;21.80;99.90;;;;;;5013509;28;20108;-45
2021/06/12 06:26:00;;;;;;;3.60;3.00;;;21.90;99.90;;;;;;5013760;28;20033;-47
2021/06/12 06:28:26;;;;;;;3.03;2.83;;;21.80;99.90;;;;;;5013092;28;20509;-48
2021/06/12 06:30:51;;;;;;;6.90;3.83;;;21.90;99.90;;;;;;5012830;28;20040;-46
2021/06/12 06:33:17;;;;;;;4.68;3.35;;;22.00;99.90;;;;;;5012503;28;20034;-45
2021/06/12 06:35:43;;;;;;;7.72;3.22;;;22.10;99.50;;;;;;5013798;28;20101;-50
2021/06/12 06:38:08;;;;;;;4.63;3.67;;;22.20;99.80;;;;;;5012671;28;20026;-50
2021/06/12 06:40:34;;;;;;;7.10;4.25;;;22.30;99.40;;;;;;5012302;28;20101;-49
2021/06/12 06:42:59;;;;;;;7.47;4.07;;;22.40;99.30;;;;;;5012915;28;20108;-52
2021/06/12 06:45:25;;;;;;;5.15;4.30;;;22.50;99.00;;;;;;5012795;28;20030;-54
2021/06/12 06:47:50;;;;;;;6.78;3.95;;;22.40;98.90;;;;;;5013197;28;20030;-50
2021/06/12 06:50:16;;;;;;;6.30;3.78;;;22.40;99.20;;;;;;5012732;28;20412;-54
2021/06/12 06:52:43;;;;;;;4.70;4.10;;;22.50;99.10;;;;;;5012992;28;20022;-51
2021/06/12 06:55:10;;;;;;;5.50;3.80;;;22.50;99.20;;;;;;5012682;28;20029;-50
2021/06/12 06:57:36;;;;;;;8.88;5.60;;;22.50;99.20;;;;;;5013079;28;20393;-52
2021/06/12 07:00:04;;;;;;;9.02;5.13;;;22.60;98.80;;;;;;5012572;28;20018;-52
2021/06/12 07:02:30;;;;;;;5.15;4.68;;;22.60;98.30;;;;;;5013495;28;20112;-49
2021/06/12 07:04:55;;;;;;;11.80;5.05;;;22.70;98.40;;;;;;5012800;28;20054;-53
2021/06/12 07:07:21;;;;;;;9.63;5.30;;;22.70;98.40;;;;;;5013541;28;20029;-53
2021/06/12 07:09:46;;;;;;;14.15;5.72;;;22.80;98.10;;;;;;5013182;28;20444;-52
2021/06/12 07:12:12;;;;;;;12.63;5.82;;;22.90;97.80;;;;;;5013611;28;20055;-56
2021/06/12 07:14:39;;;;;;;8.27;5.40;;;23.00;97.60;;;;;;5011499;28;20119;-50
2021/06/12 07:17:04;;;;;;;10.50;5.55;;;23.00;97.50;;;;;;5012467;28;20088;-50
2021/06/12 07:19:30;;;;;;;10.48;5.35;;;23.20;97.60;;;;;;5012052;28;20423;-51
2021/06/12 07:21:56;;;;;;;7.70;5.15;;;23.10;97.40;;;;;;5011192;28;20437;-51
2021/06/12 07:24:21;;;;;;;9.95;5.88;;;23.10;97.40;;;;;;5010826;28;20033;-50
2021/06/12 07:26:47;;;;;;;6.65;5.55;;;23.20;97.50;;;;;;5011624;28;20021;-48
2021/06/12 07:29:13;;;;;;;10.77;6.03;;;23.30;97.40;;;;;;5011912;28;20022;-50
2021/06/12 07:31:40;;;;;;;8.90;6.75;;;23.40;97.20;;;;;;5012144;28;20045;-47
2021/06/12 07:34:07;;;;;;;14.32;6.68;;;23.40;96.70;;;;;;5012237;28;20109;-54
2021/06/12 07:36:33;;;;;;;7.35;6.18;;;23.50;96.40;;;;;;5011555;28;20028;-49
2021/06/12 07:38:59;;;;;;;8.30;6.18;;;23.60;96.30;;;;;;5011615;28;20034;-50
2021/06/12 07:41:25;;;;;;;12.70;6.75;;;23.80;96.10;;;;;;5009830;28;20113;-50
2021/06/12 07:43:50;;;;;;;9.50;5.88;;;24.30;95.30;;;;;;5011640;28;20397;-49
2021/06/12 07:46:16;;;;;;;12.80;6.70;;;24.80;94.90;;;;;;5011742;28;20105;-51
2021/06/12 07:48:42;;;;;;;9.85;5.72;;;25.70;93.70;;;;;;5011468;28;20030;-49
2021/06/12 07:51:07;;;;;;;9.20;6.30;;;26.40;92.10;;;;;;5011704;28;20396;-48
2021/06/12 07:53:33;;;;;;;12.38;6.55;;;27.00;90.70;;;;;;4996023;28;20031;-47
2021/06/12 07:55:59;;;;;;;9.10;6.15;;;27.70;90.30;;;;;;5009446;28;20061;-49
2021/06/12 07:58:25;;;;;;;11.25;5.72;;;28.30;87.50;;;;;;5007871;28;20033;-50
2021/06/12 08:00:50;;;;;;;10.32;5.28;;;28.80;86.60;;;;;;5010726;28;20030;-50
2021/06/12 08:03:16;;;;;;;10.38;5.63;;;29.40;84.10;;;;;;5010935;28;20112;-52
2021/06/12 08:05:41;;;;;;;7.32;5.13;;;29.60;83.20;;;;;;5010325;28;20069;-49
2021/06/12 08:08:07;;;;;;;6.57;5.78;;;29.60;82.60;;;;;;5009257;28;20108;-47
2021/06/12 08:10:33;;;;;;;9.88;5.80;;;29.20;83.10;;;;;;5006929;28;20034;-48
2021/06/12 08:12:58;;;;;;;8.35;4.80;;;29.10;83.30;;;;;;4991225;28;20545;-43
2021/06/12 08:15:24;;;;;;;8.75;4.85;;;28.80;85.00;;;;;;5009057;28;20417;-55
2021/06/12 08:17:50;;;;;;;7.18;6.20;;;28.70;85.80;;;;;;5010896;28;20030;-54
2021/06/12 08:20:16;;;;;;;9.93;6.50;;;28.50;85.00;;;;;;5014853;28;20572;-53
2021/06/12 08:22:41;;;;;;;7.38;5.47;;;28.10;84.80;;;;;;5015165;28;20057;-57
2021/06/12 08:25:09;;;;;;;9.27;5.60;;;27.80;86.90;;;;;;5014762;28;20033;-58
2021/06/12 08:27:35;;;;;;;12.93;5.13;;;27.50;87.70;;;;;;5013462;28;20098;-57
2021/06/12 08:30:03;;;;;;;7.50;5.35;;;27.20;89.50;;;;;;5011211;28;20040;-53
2021/06/12 08:32:28;;;;;;;13.05;7.03;;;26.90;90.30;;;;;;5010357;28;20030;-50
2021/06/12 08:34:54;;;;;;;9.63;5.40;;;26.60;90.60;;;;;;5009903;28;20466;-51
2021/06/12 08:37:19;;;;;;;10.73;7.15;;;26.50;91.50;;;;;;5010793;28;20030;-48
2021/06/12 08:39:45;;;;;;;11.73;7.78;;;26.30;91.10;;;;;;5010856;28;20018;-48
2021/06/12 08:42:10;;;;;;;13.75;7.68;;;26.30;90.60;;;;;;5008695;28;20036;-51
2021/06/12 08:44:36;;;;;;;9.95;7.13;;;26.10;90.90;;;;;;5034696;23;20428;-50
2021/06/12 08:47:02;;;;;;;11.60;8.07;;;26.00;90.90;;;;;;5050312;28;20407;-49
2021/06/12 08:49:28;;;;;;;10.70;7.18;;;26.00;90.90;;;;;;5049139;28;20027;-52
2021/06/12 08:51:53;;;;;;;12.75;7.45;;;26.00;91.30;;;;;;5050101;28;20021;-56
2021/06/12 08:54:21;;;;;;;9.63;7.18;;;26.00;91.30;;;;;;5045258;28;20025;-54
2021/06/12 08:56:48;;;;;;;10.43;6.72;;;26.00;91.30;;;;;;5029530;28;20033;-54
2021/06/12 08:59:14;;;;;;;13.25;7.15;;;26.00;91.60;;;;;;5029500;28;20083;-56
2021/06/12 09:01:42;;;;;;;7.80;5.55;;;26.10;91.90;;;;;;5012704;28;20412;-51
2021/06/12 09:04:07;;;;;;;6.65;5.30;;;26.00;91.60;;;;;;5029930;28;20017;-53
2021/06/12 09:06:33;;;;;;;6.55;5.20;;;26.00;90.80;;;;;;5030020;28;20034;-54
2021/06/12 09:08:58;;;;;;;7.43;5.50;;;26.00;91.20;;;;;;5029494;28;20040;-54
2021/06/12 09:11:25;;;;;;;10.43;5.28;;;26.10;91.30;;;;;;5030383;28;20022;-54
2021/06/12 09:14:01;;;;;;;9.02;5.97;;;26.10;90.50;;;;;;5030546;28;20021;-54
2021/06/12 09:16:40;;;;;;;6.35;5.25;;;25.90;90.90;;;;;;5009475;28;20037;-56
2021/06/12 09:19:17;;;;;;;10.57;5.25;;;25.90;90.90;;;;;;5010979;28;20026;-55
2021/06/12 09:21:45;;;;;;;10.35;5.40;;;25.90;91.20;;;;;;5030443;28;20045;-54
2021/06/12 09:24:21;;;;;;;8.00;4.43;;;25.90;91.10;;;;;;5030119;28;20022;-53
2021/06/12 09:26:51;;;;;;;6.68;3.80;;;25.90;91.00;;;;;;5029995;28;20492;-52
2021/06/12 09:29:19;;;;;;;7.75;4.47;;;25.90;91.20;;;;;;5029337;28;20029;-54
2021/06/12 09:31:52;;;;;;;9.15;5.20;;;26.00;91.30;;;;;;5030324;28;20057;-52
2021/06/12 09:34:23;;;;;;;5.88;4.80;;;26.10;91.20;;;;;;5029611;28;20396;-55
2021/06/12 09:36:50;;;;;;;8.80;4.53;;;26.20;91.20;;;;;;5013645;28;20033;-53
2021/06/12 09:39:19;;;;;;;4.43;4.03;;;26.20;90.60;;;;;;5012569;28;20021;-54
2021/06/12 09:41:48;;;;;;;4.47;4.07;;;26.30;91.10;;;;;;5012503;28;20036;-51
2021/06/12 09:44:39;;;;;;;9.23;3.83;;;26.40;90.50;;;;;;5029476;28;20067;-55
2021/06/12 09:47:10;;;;;;;3.42;2.97;;;26.40;90.50;;;;;;5012339;28;20127;-53
2021/06/12 09:49:38;;;;;;;6.00;3.50;;;26.40;88.80;;;;;;5011378;28;20032;-55
2021/06/12 09:52:15;;;;;;;5.47;3.90;;;26.50;89.60;;;;;;5029940;28;20045;-54
2021/06/12 09:54:43;;;;;;;5.75;3.00;;;26.50;89.70;;;;;;5029571;28;20022;-55
2021/06/12 09:57:10;;;;;;;3.58;3.28;;;26.50;90.00;;;;;;5029719;28;20595;-54
2021/06/12 09:59:41;;;;;;;3.35;3.00;;;26.40;89.10;;;;;;5028984;28;20045;-54
2021/06/12 10:02:07;;;;;;;7.63;3.17;;;26.40;89.70;;;;;;5029767;28;20030;-53
2021/06/12 10:04:33;;;;;;;9.60;3.90;;;26.30;90.00;;;;;;5029484;28;20033;-55
2021/06/12 10:06:59;;;;;;;5.50;3.25;;;26.30;89.20;;;;;;5029742;28;20030;-52
2021/06/12 10:09:25;;;;;;;3.55;3.25;;;26.30;89.50;;;;;;5029165;28;20029;-54
2021/06/12 10:11:52;;;;;;;3.70;3.10;;;26.20;89.90;;;;;;5029571;28;20026;-52
2021/06/12 10:14:18;;;;;;;3.20;2.60;;;26.10;90.10;;;;;;5029820;28;20544;-53
2021/06/12 10:16:44;;;;;;;3.00;2.63;;;26.10;90.00;;;;;;5032676;28;20036;-53
2021/06/12 10:19:13;;;;;;;2.75;2.55;;;26.10;90.10;;;;;;5033046;28;20244;-55
2021/06/12 10:21:39;;;;;;;2.35;1.90;;;26.20;90.10;;;;;;5033608;28;20017;-52
2021/06/12 10:24:09;;;;;;;2.30;2.10;;;26.10;89.00;;;;;;5033841;28;20029;-52
2021/06/12 10:26:35;;;;;;;1.92;1.83;;;26.00;88.60;;;;;;5032415;28;20021;-55
2021/06/12 10:29:02;;;;;;;3.78;2.20;;;26.00;89.30;;;;;;5021943;28;20057;-55
2021/06/12 10:31:30;;;;;;;3.05;1.55;;;26.00;88.50;;;;;;5030027;28;20044;-53
2021/06/12 10:33:56;;;;;;;0.93;0.93;;;25.80;85.60;;;;;;5033030;28;20024;-53
2021/06/12 10:36:28;;;;;;;1.77;1.08;;;25.90;86.30;;;;;;5021026;28;20064;-54
2021/06/12 10:38:55;;;;;;;3.63;1.20;;;25.90;85.70;;;;;;5022982;28;20034;-52
2021/06/12 10:41:23;;;;;;;1.02;0.88;;;25.90;86.20;;;;;;5021891;28;20025;-53
2021/06/12 10:43:51;;;;;;;1.23;1.10;;;26.00;85.20;;;;;;5013893;28;20136;-51
2021/06/12 10:46:27;;;;;;;0.95;0.95;;;26.00;86.10;;;;;;5028003;28;20048;-55
2021/06/12 10:49:02;;;;;;;0.80;0.80;;;26.10;85.60;;;;;;5013827;28;20401;-57
2021/06/12 10:51:28;;;;;;;0.82;0.80;;;26.20;83.00;;;;;;5016672;28;20024;-48
2021/06/12 10:54:09;;;;;;;1.75;0.68;;;26.20;82.60;;;;;;5024254;28;20021;-46
2021/06/12 10:56:37;;;;;;;0.77;0.60;;;26.20;81.40;;;;;;5019187;28;20032;-47
2021/06/12 10:59:04;;;;;;;0.85;0.60;;;26.10;82.70;;;;;;5032446;28;20112;-53
2021/06/12 11:01:30;;;;;;;0.60;0.60;;;25.90;83.00;;;;;;5028598;28;20379;-47
2021/06/12 11:04:00;;;;;;;0.60;0.60;;;25.80;83.50;;;;;;5014841;28;20032;-46
2021/06/12 11:07:22;;;;;;;0.60;0.60;;;25.80;83.10;;;;;;5018480;28;20397;-53
2021/06/12 11:09:34;;;;;;;2.25;0.75;;;25.90;81.10;;;;;;5028973;28;20084;-51
2021/06/12 11:12:13;;;;;;;4.05;0.65;;;25.80;82.80;;;;;;5032762;28;20440;-49
2021/06/12 11:14:39;;;;;;;1.00;0.73;;;25.70;81.80;;;;;;5032778;28;20044;-47
2021/06/12 11:17:04;;;;;;;0.85;0.60;;;25.60;82.40;;;;;;5032811;28;20031;-48
2021/06/12 11:19:31;;;;;;;0.47;0.47;;;25.70;83.10;;;;;;5014274;28;20400;-49
2021/06/12 11:22:37;;;;;;;0.50;0.50;;;25.70;81.40;;;;;;5032028;28;20078;-47
2021/06/12 11:25:09;;;;;;;0.80;0.80;;;25.80;81.30;;;;;;5032501;28;20025;-49
2021/06/12 11:27:38;;;;;;;0.65;0.60;;;25.80;81.90;;;;;;4994906;28;20032;-53
2021/06/12 11:30:13;;;;;;;0.98;0.70;;;25.80;81.00;;;;;;5019514;28;20033;-50
2021/06/12 11:32:45;;;;;;;2.38;0.50;;;25.90;82.60;;;;;;5032667;28;20025;-49
2021/06/12 11:35:11;;;;;;;1.02;0.85;;;26.00;80.80;;;;;;5031276;28;20071;-52
2021/06/12 11:37:50;;;;;;;0.70;0.70;;;26.10;81.50;;;;;;5032177;28;20121;-54
2021/06/12 11:40:21;;;;;;;0.68;0.68;;;26.20;80.90;;;;;;5031718;28;20120;-49
2021/06/12 11:42:48;;;;;;;1.83;0.90;;;26.10;80.20;;;;;;5032200;28;20400;-52
2021/06/12 11:45:14;;;;;;;0.60;0.60;;;26.20;77.90;;;;;;5031844;28;20028;-55
2021/06/12 11:47:40;;;;;;;0.70;0.70;;;26.20;77.50;;;;;;5032203;28;20022;-54
2021/06/12 11:50:06;;;;;;;1.55;1.02;;;26.20;77.10;;;;;;5031387;28;20021;-54
2021/06/12 11:52:43;;;;;;;3.55;1.30;;;26.20;79.20;;;;;;5031957;28;20040;-52
2021/06/12 11:55:20;;;;;;;3.15;1.10;;;26.30;79.60;;;;;;5031872;28;20037;-54
2021/06/12 11:57:48;;;;;;;4.28;1.58;;;26.40;80.10;;;;;;5031882;28;20033;-52
2021/06/12 12:00:30;;;;;;;1.73;1.30;;;26.40;79.80;;;;;;5031066;28;20112;-51
2021/06/12 12:03:07;;;;;;;1.92;1.48;;;26.40;79.30;;;;;;5032072;28;20022;-50
2021/06/12 12:05:42;;;;;;;2.63;1.27;;;26.30;79.40;;;;;;5031473;28;20026;-48
2021/06/12 12:08:08;;;;;;;;;;;26.30;80.70;;;;;;5031964;28;20068;-49
2021/06/12 12:10:34;;;;;;;8.68;1.83;;;26.30;79.20;;;;;;5030633;28;20629;-53
2021/06/12 12:13:00;;;;;;;2.38;1.85;;;26.30;79.60;;;;;;5013240;28;20021;-52
2021/06/12 12:15:43;;;;;;;1.38;1.38;;;26.50;80.30;;;;;;5031113;28;20253;-50
2021/06/12 12:18:12;;;;;;;3.53;1.50;;;26.30;79.90;;;;;;5031089;28;20079;-53
2021/06/12 12:20:49;;;;;;;2.58;1.80;;;26.20;80.10;;;;;;5030455;28;20404;-48
2021/06/12 12:23:28;;;;;;;2.53;1.95;;;26.10;81.10;;;;;;5030986;28;20443;-53
2021/06/12 12:26:10;;;;;;;2.83;2.03;;;26.10;81.80;;;;;;5031069;28;20476;-51
2021/06/12 12:28:52;;;;;;;5.75;2.00;;;26.20;81.20;;;;;;5030683;28;20029;-51
2021/06/12 12:31:18;;;;;;;2.90;1.60;;;26.20;80.70;;;;;;5030683;28;20485;-48
2021/06/12 12:33:46;;;;;;;3.58;1.70;;;26.10;79.80;;;;;;5030792;28;20026;-48
2021/06/12 12:36:12;;;;;;;2.25;1.45;;;26.20;80.10;;;;;;5030569;28;20026;-51
2021/06/12 12:38:39;;;;;;;2.75;1.85;;;26.20;80.60;;;;;;5029768;28;20029;-47
2021/06/12 12:41:07;;;;;;;2.20;1.90;;;26.20;81.00;;;;;;5030294;28;20424;-49
2021/06/12 12:43:32;;;;;;;4.72;1.70;;;26.20;81.10;;;;;;5012906;28;20021;-50
2021/06/12 12:45:59;;;;;;;7.97;2.03;;;26.20;80.80;;;;;;5030616;28;20052;-50
2021/06/12 12:48:25;;;;;;;2.40;1.80;;;26.30;80.90;;;;;;5030307;28;20503;-48
2021/06/12 12:50:51;;;;;;;1.92;1.83;;;26.30;81.00;;;;;;5012365;28;20025;-52